sensor_id;sensor_type;location;lat;lon;timestamp;P1;durP1;ratioP1;P2;durP2;ratioP2
2293;SDS011;1155;42.644;23.264;2023-04-24T00:02:08;8.07;;;7.23;;
2293;SDS011;1155;42.644;23.264;2023-04-24T00:04:41;7.77;;;7.03;;
2293;SDS011;1155;42.644;23.264;2023-04-24T00:07:09;7.20;;;6.60;;
2293;SDS011;1155;42.644;23.264;2023-04-24T00:09:39;7.87;;;6.27;;
2293;SDS011;1155;42.644;23.264;2023-04-24T00:12:10;8.37;;;7.47;;
2293;SDS011;1155;42.644;23.264;2023-04-24T00:14:38;9.77;;;7.77;;
2293;SDS011;1155;42.644;23.264;2023-04-24T00:17:06;8.70;;;7.00;;
2293;SDS011;1155;42.644;23.264;2023-04-24T00:19:36;8.30;;;6.50;;
2293;SDS011;1155;42.644;23.264;2023-04-24T00:22:09;9.83;;;8.10;;
2293;SDS011;1155;42.644;23.264;2023-04-24T00:24:43;9.27;;;6.60;;
2293;SDS011;1155;42.644;23.264;2023-04-24T00:27:28;7.20;;;6.47;;
2293;SDS011;1155;42.644;23.264;2023-04-24T00:29:57;6.60;;;6.00;;
2293;SDS011;1155;42.644;23.264;2023-04-24T00:32:36;10.20;;;6.77;;
2293;SDS011;1155;42.644;23.264;2023-04-24T00:35:04;10.00;;;6.87;;
2293;SDS011;1155;42.644;23.264;2023-04-24T00:37:52;8.50;;;7.60;;
2293;SDS011;1155;42.644;23.264;2023-04-24T00:40:31;10.13;;;8.07;;
2293;SDS011;1155;42.644;23.264;2023-04-24T00:43:00;8.80;;;7.70;;
2293;SDS011;1155;42.644;23.264;2023-04-24T00:45:33;15.40;;;8.73;;
2293;SDS011;1155;42.644;23.264;2023-04-24T00:48:00;9.20;;;6.53;;
2293;SDS011;1155;42.644;23.264;2023-04-24T00:50:30;11.77;;;6.73;;
2293;SDS011;1155;42.644;23.264;2023-04-24T00:52:57;8.47;;;7.60;;
2293;SDS011;1155;42.644;23.264;2023-04-24T00:55:24;9.80;;;7.60;;
2293;SDS011;1155;42.644;23.264;2023-04-24T00:57:51;8.97;;;7.17;;
2293;SDS011;1155;42.644;23.264;2023-04-24T01:00:24;7.30;;;6.67;;
2293;SDS011;1155;42.644;23.264;2023-04-24T01:03:02;7.23;;;6.57;;
2293;SDS011;1155;42.644;23.264;2023-04-24T01:05:31;8.50;;;7.60;;
2293;SDS011;1155;42.644;23.264;2023-04-24T01:08:01;8.90;;;7.30;;
2293;SDS011;1155;42.644;23.264;2023-04-24T01:10:31;8.50;;;7.00;;
2293;SDS011;1155;42.644;23.264;2023-04-24T01:12:59;12.10;;;7.70;;
2293;SDS011;1155;42.644;23.264;2023-04-24T01:15:26;9.67;;;8.70;;
2293;SDS011;1155;42.644;23.264;2023-04-24T01:17:54;9.57;;;8.67;;
2293;SDS011;1155;42.644;23.264;2023-04-24T01:20:21;11.57;;;8.40;;
2293;SDS011;1155;42.644;23.264;2023-04-24T01:22:59;10.23;;;8.77;;
2293;SDS011;1155;42.644;23.264;2023-04-24T01:25:26;10.80;;;8.00;;
2293;SDS011;1155;42.644;23.264;2023-04-24T01:27:57;12.43;;;9.33;;
2293;SDS011;1155;42.644;23.264;2023-04-24T01:30:29;13.30;;;9.83;;
2293;SDS011;1155;42.644;23.264;2023-04-24T01:33:04;12.80;;;9.53;;
2293;SDS011;1155;42.644;23.264;2023-04-24T01:35:40;10.50;;;9.37;;
2293;SDS011;1155;42.644;23.264;2023-04-24T01:38:21;16.43;;;10.50;;
2293;SDS011;1155;42.644;23.264;2023-04-24T01:40:57;12.67;;;10.20;;
2293;SDS011;1155;42.644;23.264;2023-04-24T01:43:35;12.10;;;10.47;;
2293;SDS011;1155;42.644;23.264;2023-04-24T01:46:14;12.80;;;9.67;;
2293;SDS011;1155;42.644;23.264;2023-04-24T01:48:45;13.83;;;10.47;;
2293;SDS011;1155;42.644;23.264;2023-04-24T01:51:12;11.70;;;10.00;;
2293;SDS011;1155;42.644;23.264;2023-04-24T01:53:46;13.27;;;10.90;;
2293;SDS011;1155;42.644;23.264;2023-04-24T01:56:14;11.33;;;9.40;;
2293;SDS011;1155;42.644;23.264;2023-04-24T01:58:51;15.47;;;11.00;;
2293;SDS011;1155;42.644;23.264;2023-04-24T02:01:31;13.77;;;10.43;;
2293;SDS011;1155;42.644;23.264;2023-04-24T02:04:11;14.90;;;10.17;;
2293;SDS011;1155;42.644;23.264;2023-04-24T02:06:51;10.23;;;9.10;;
2293;SDS011;1155;42.644;23.264;2023-04-24T02:09:28;11.33;;;10.13;;
2293;SDS011;1155;42.644;23.264;2023-04-24T02:12:03;10.57;;;8.37;;
2293;SDS011;1155;42.644;23.264;2023-04-24T02:14:30;13.50;;;8.17;;
2293;SDS011;1155;42.644;23.264;2023-04-24T02:17:03;10.13;;;7.40;;
2293;SDS011;1155;42.644;23.264;2023-04-24T02:19:33;11.57;;;8.13;;
2293;SDS011;1155;42.644;23.264;2023-04-24T02:22:09;11.03;;;8.23;;
2293;SDS011;1155;42.644;23.264;2023-04-24T02:27:20;9.80;;;7.97;;
2293;SDS011;1155;42.644;23.264;2023-04-24T02:30:02;7.47;;;6.77;;
2293;SDS011;1155;42.644;23.264;2023-04-24T02:32:29;9.23;;;8.33;;
2293;SDS011;1155;42.644;23.264;2023-04-24T02:34:56;16.10;;;10.23;;
2293;SDS011;1155;42.644;23.264;2023-04-24T02:37:23;9.97;;;8.97;;
2293;SDS011;1155;42.644;23.264;2023-04-24T02:39:53;10.83;;;7.67;;
2293;SDS011;1155;42.644;23.264;2023-04-24T02:42:23;11.73;;;9.47;;
2293;SDS011;1155;42.644;23.264;2023-04-24T02:44:53;9.77;;;8.77;;
2293;SDS011;1155;42.644;23.264;2023-04-24T02:47:23;11.17;;;8.80;;
2293;SDS011;1155;42.644;23.264;2023-04-24T02:49:52;9.47;;;8.13;;
2293;SDS011;1155;42.644;23.264;2023-04-24T02:52:19;8.53;;;7.67;;
2293;SDS011;1155;42.644;23.264;2023-04-24T02:54:51;12.53;;;10.60;;
2293;SDS011;1155;42.644;23.264;2023-04-24T02:57:19;10.70;;;7.80;;
2293;SDS011;1155;42.644;23.264;2023-04-24T02:59:50;10.23;;;9.13;;
2293;SDS011;1155;42.644;23.264;2023-04-24T03:02:16;8.70;;;6.87;;
2293;SDS011;1155;42.644;23.264;2023-04-24T03:04:43;8.50;;;7.70;;
2293;SDS011;1155;42.644;23.264;2023-04-24T03:07:10;13.10;;;6.97;;
2293;SDS011;1155;42.644;23.264;2023-04-24T03:09:37;9.50;;;8.13;;
2293;SDS011;1155;42.644;23.264;2023-04-24T03:12:05;9.83;;;7.50;;
2293;SDS011;1155;42.644;23.264;2023-04-24T03:14:33;8.20;;;7.37;;
2293;SDS011;1155;42.644;23.264;2023-04-24T03:17:03;10.83;;;7.30;;
2293;SDS011;1155;42.644;23.264;2023-04-24T03:19:30;10.70;;;9.10;;
2293;SDS011;1155;42.644;23.264;2023-04-24T03:21:57;10.90;;;8.80;;
2293;SDS011;1155;42.644;23.264;2023-04-24T03:24:23;14.67;;;8.63;;
2293;SDS011;1155;42.644;23.264;2023-04-24T03:26:55;8.47;;;7.73;;
2293;SDS011;1155;42.644;23.264;2023-04-24T03:29:22;9.07;;;7.60;;
2293;SDS011;1155;42.644;23.264;2023-04-24T03:31:52;12.77;;;9.13;;
2293;SDS011;1155;42.644;23.264;2023-04-24T03:34:23;12.50;;;9.00;;
2293;SDS011;1155;42.644;23.264;2023-04-24T03:36:58;12.60;;;8.70;;
2293;SDS011;1155;42.644;23.264;2023-04-24T03:39:24;11.30;;;9.30;;
2293;SDS011;1155;42.644;23.264;2023-04-24T03:41:52;15.47;;;9.80;;
2293;SDS011;1155;42.644;23.264;2023-04-24T03:44:23;10.87;;;9.77;;
2293;SDS011;1155;42.644;23.264;2023-04-24T03:46:55;9.63;;;8.67;;
2293;SDS011;1155;42.644;23.264;2023-04-24T03:49:26;15.60;;;9.33;;
2293;SDS011;1155;42.644;23.264;2023-04-24T03:51:53;11.13;;;9.63;;
2293;SDS011;1155;42.644;23.264;2023-04-24T03:54:20;10.67;;;9.57;;
2293;SDS011;1155;42.644;23.264;2023-04-24T03:56:49;9.40;;;8.50;;
2293;SDS011;1155;42.644;23.264;2023-04-24T03:59:16;12.10;;;9.20;;
2293;SDS011;1155;42.644;23.264;2023-04-24T04:07:42;12.23;;;9.80;;
2293;SDS011;1155;42.644;23.264;2023-04-24T04:12:41;9.60;;;8.60;;
2293;SDS011;1155;42.644;23.264;2023-04-24T04:15:15;12.23;;;8.93;;
2293;SDS011;1155;42.644;23.264;2023-04-24T04:17:45;11.20;;;10.10;;
2293;SDS011;1155;42.644;23.264;2023-04-24T04:20:12;12.00;;;8.63;;
2293;SDS011;1155;42.644;23.264;2023-04-24T04:22:40;11.27;;;8.13;;
2293;SDS011;1155;42.644;23.264;2023-04-24T04:25:11;9.67;;;8.37;;
2293;SDS011;1155;42.644;23.264;2023-04-24T04:27:44;10.70;;;8.17;;
2293;SDS011;1155;42.644;23.264;2023-04-24T04:30:13;10.93;;;7.20;;
2293;SDS011;1155;42.644;23.264;2023-04-24T04:32:46;9.73;;;8.70;;
2293;SDS011;1155;42.644;23.264;2023-04-24T04:35:13;9.77;;;8.03;;
2293;SDS011;1155;42.644;23.264;2023-04-24T04:37:45;14.60;;;9.07;;
2293;SDS011;1155;42.644;23.264;2023-04-24T04:40:24;8.67;;;7.67;;
2293;SDS011;1155;42.644;23.264;2023-04-24T04:45:45;14.27;;;10.17;;
2293;SDS011;1155;42.644;23.264;2023-04-24T04:48:18;12.67;;;9.30;;
2293;SDS011;1155;42.644;23.264;2023-04-24T04:51:03;10.80;;;9.60;;
2293;SDS011;1155;42.644;23.264;2023-04-24T04:53:32;10.90;;;9.17;;
2293;SDS011;1155;42.644;23.264;2023-04-24T04:56:01;15.00;;;9.37;;
2293;SDS011;1155;42.644;23.264;2023-04-24T04:58:33;9.87;;;8.87;;
2293;SDS011;1155;42.644;23.264;2023-04-24T05:00:59;13.43;;;10.13;;
2293;SDS011;1155;42.644;23.264;2023-04-24T05:06:44;12.53;;;9.97;;
2293;SDS011;1155;42.644;23.264;2023-04-24T05:09:15;13.50;;;10.33;;
2293;SDS011;1155;42.644;23.264;2023-04-24T05:11:46;12.23;;;10.47;;
2293;SDS011;1155;42.644;23.264;2023-04-24T05:14:19;13.73;;;10.10;;
2293;SDS011;1155;42.644;23.264;2023-04-24T05:16:58;12.00;;;9.40;;
2293;SDS011;1155;42.644;23.264;2023-04-24T05:19:29;17.93;;;10.60;;
2293;SDS011;1155;42.644;23.264;2023-04-24T05:22:12;15.20;;;9.20;;
2293;SDS011;1155;42.644;23.264;2023-04-24T05:24:50;11.07;;;9.90;;
2293;SDS011;1155;42.644;23.264;2023-04-24T05:27:33;13.40;;;10.70;;
2293;SDS011;1155;42.644;23.264;2023-04-24T05:30:00;10.70;;;8.93;;
2293;SDS011;1155;42.644;23.264;2023-04-24T05:32:27;10.97;;;9.80;;
2293;SDS011;1155;42.644;23.264;2023-04-24T05:40:35;11.83;;;10.13;;
2293;SDS011;1155;42.644;23.264;2023-04-24T05:43:02;12.13;;;10.40;;
2293;SDS011;1155;42.644;23.264;2023-04-24T05:45:29;14.47;;;11.07;;
2293;SDS011;1155;42.644;23.264;2023-04-24T05:47:56;13.73;;;11.83;;
2293;SDS011;1155;42.644;23.264;2023-04-24T05:50:23;15.20;;;10.33;;
2293;SDS011;1155;42.644;23.264;2023-04-24T05:52:52;16.13;;;11.57;;
2293;SDS011;1155;42.644;23.264;2023-04-24T05:55:28;14.83;;;10.37;;
2293;SDS011;1155;42.644;23.264;2023-04-24T05:57:57;14.70;;;10.70;;
2293;SDS011;1155;42.644;23.264;2023-04-24T06:00:26;12.50;;;10.80;;
2293;SDS011;1155;42.644;23.264;2023-04-24T06:02:54;14.10;;;11.40;;
2293;SDS011;1155;42.644;23.264;2023-04-24T06:05:21;12.30;;;11.10;;
2293;SDS011;1155;42.644;23.264;2023-04-24T06:07:48;12.27;;;11.03;;
2293;SDS011;1155;42.644;23.264;2023-04-24T06:10:15;11.63;;;10.47;;
2293;SDS011;1155;42.644;23.264;2023-04-24T06:12:41;14.23;;;10.20;;
2293;SDS011;1155;42.644;23.264;2023-04-24T06:15:10;15.90;;;10.93;;
2293;SDS011;1155;42.644;23.264;2023-04-24T06:17:37;16.23;;;11.33;;
2293;SDS011;1155;42.644;23.264;2023-04-24T06:20:05;13.27;;;10.63;;
2293;SDS011;1155;42.644;23.264;2023-04-24T06:22:33;18.40;;;10.07;;
2293;SDS011;1155;42.644;23.264;2023-04-24T06:25:00;11.70;;;10.60;;
2293;SDS011;1155;42.644;23.264;2023-04-24T06:27:27;14.23;;;10.97;;
2293;SDS011;1155;42.644;23.264;2023-04-24T06:29:54;13.37;;;10.90;;
2293;SDS011;1155;42.644;23.264;2023-04-24T06:32:25;16.70;;;10.27;;
2293;SDS011;1155;42.644;23.264;2023-04-24T06:34:53;9.80;;;8.47;;
2293;SDS011;1155;42.644;23.264;2023-04-24T06:37:20;13.20;;;9.27;;
2293;SDS011;1155;42.644;23.264;2023-04-24T06:39:47;9.53;;;8.13;;
2293;SDS011;1155;42.644;23.264;2023-04-24T06:42:14;9.33;;;8.27;;
2293;SDS011;1155;42.644;23.264;2023-04-24T06:44:41;13.87;;;8.13;;
2293;SDS011;1155;42.644;23.264;2023-04-24T06:47:07;10.00;;;8.70;;
2293;SDS011;1155;42.644;23.264;2023-04-24T06:49:36;11.20;;;8.30;;
2293;SDS011;1155;42.644;23.264;2023-04-24T06:52:04;9.93;;;8.63;;
2293;SDS011;1155;42.644;23.264;2023-04-24T06:54:31;9.60;;;8.73;;
2293;SDS011;1155;42.644;23.264;2023-04-24T06:56:58;9.83;;;8.70;;
2293;SDS011;1155;42.644;23.264;2023-04-24T06:59:27;12.17;;;10.07;;
2293;SDS011;1155;42.644;23.264;2023-04-24T07:01:54;13.20;;;8.37;;
2293;SDS011;1155;42.644;23.264;2023-04-24T07:04:22;17.03;;;9.10;;
2293;SDS011;1155;42.644;23.264;2023-04-24T07:06:51;11.67;;;7.63;;
2293;SDS011;1155;42.644;23.264;2023-04-24T07:09:22;8.57;;;7.70;;
2293;SDS011;1155;42.644;23.264;2023-04-24T07:11:51;11.40;;;8.37;;
2293;SDS011;1155;42.644;23.264;2023-04-24T07:14:21;10.43;;;7.73;;
2293;SDS011;1155;42.644;23.264;2023-04-24T07:17:03;7.90;;;6.80;;
2293;SDS011;1155;42.644;23.264;2023-04-24T07:19:42;9.70;;;7.30;;
2293;SDS011;1155;42.644;23.264;2023-04-24T07:22:30;10.40;;;8.07;;
2293;SDS011;1155;42.644;23.264;2023-04-24T07:25:20;9.33;;;8.30;;
2293;SDS011;1155;42.644;23.264;2023-04-24T07:28:01;9.33;;;7.43;;
2293;SDS011;1155;42.644;23.264;2023-04-24T07:31:04;10.03;;;7.60;;
2293;SDS011;1155;42.644;23.264;2023-04-24T07:33:53;7.33;;;6.20;;
2293;SDS011;1155;42.644;23.264;2023-04-24T07:36:41;10.10;;;6.13;;
2293;SDS011;1155;42.644;23.264;2023-04-24T07:40:03;7.00;;;6.30;;
2293;SDS011;1155;42.644;23.264;2023-04-24T07:42:47;7.47;;;6.00;;
2293;SDS011;1155;42.644;23.264;2023-04-24T07:45:54;6.17;;;5.30;;
2293;SDS011;1155;42.644;23.264;2023-04-24T07:49:07;8.67;;;7.87;;
2293;SDS011;1155;42.644;23.264;2023-04-24T07:52:08;11.33;;;7.43;;
2293;SDS011;1155;42.644;23.264;2023-04-24T07:55:02;8.60;;;6.63;;
2293;SDS011;1155;42.644;23.264;2023-04-24T07:58:02;9.00;;;7.90;;
2293;SDS011;1155;42.644;23.264;2023-04-24T08:01:00;9.70;;;7.30;;
2293;SDS011;1155;42.644;23.264;2023-04-24T08:03:54;13.63;;;7.97;;
2293;SDS011;1155;42.644;23.264;2023-04-24T08:07:00;11.70;;;9.70;;
2293;SDS011;1155;42.644;23.264;2023-04-24T08:09:52;16.37;;;8.03;;
2293;SDS011;1155;42.644;23.264;2023-04-24T08:12:59;10.67;;;7.90;;
2293;SDS011;1155;42.644;23.264;2023-04-24T08:16:01;8.83;;;7.80;;
2293;SDS011;1155;42.644;23.264;2023-04-24T08:18:56;10.23;;;7.80;;
2293;SDS011;1155;42.644;23.264;2023-04-24T08:22:23;11.00;;;7.40;;
2293;SDS011;1155;42.644;23.264;2023-04-24T08:25:23;10.70;;;7.20;;
2293;SDS011;1155;42.644;23.264;2023-04-24T08:28:30;8.93;;;8.13;;
2293;SDS011;1155;42.644;23.264;2023-04-24T08:31:20;8.40;;;6.50;;
2293;SDS011;1155;42.644;23.264;2023-04-24T08:34:37;9.90;;;8.00;;
2293;SDS011;1155;42.644;23.264;2023-04-24T08:38:14;10.87;;;7.60;;
2293;SDS011;1155;42.644;23.264;2023-04-24T08:51:28;12.73;;;8.33;;
2293;SDS011;1155;42.644;23.264;2023-04-24T09:01:43;9.83;;;7.20;;
2293;SDS011;1155;42.644;23.264;2023-04-24T09:11:44;8.63;;;6.97;;
2293;SDS011;1155;42.644;23.264;2023-04-24T09:14:40;7.83;;;6.87;;
2293;SDS011;1155;42.644;23.264;2023-04-24T09:17:55;9.30;;;7.87;;
2293;SDS011;1155;42.644;23.264;2023-04-24T09:21:06;11.33;;;7.30;;
2293;SDS011;1155;42.644;23.264;2023-04-24T09:27:34;8.40;;;7.10;;
2293;SDS011;1155;42.644;23.264;2023-04-24T09:33:26;10.60;;;6.73;;
2293;SDS011;1155;42.644;23.264;2023-04-24T09:39:43;9.27;;;7.30;;
2293;SDS011;1155;42.644;23.264;2023-04-24T09:43:02;11.50;;;8.13;;
2293;SDS011;1155;42.644;23.264;2023-04-24T09:46:00;6.87;;;6.27;;
2293;SDS011;1155;42.644;23.264;2023-04-24T09:48:45;8.83;;;7.80;;
2293;SDS011;1155;42.644;23.264;2023-04-24T09:51:42;8.43;;;7.37;;
2293;SDS011;1155;42.644;23.264;2023-04-24T09:54:45;6.50;;;5.83;;
2293;SDS011;1155;42.644;23.264;2023-04-24T10:01:37;11.87;;;6.00;;
2293;SDS011;1155;42.644;23.264;2023-04-24T10:04:35;8.67;;;5.93;;
2293;SDS011;1155;42.644;23.264;2023-04-24T10:28:46;5.83;;;5.23;;
2293;SDS011;1155;42.644;23.264;2023-04-24T10:31:14;5.33;;;4.63;;
2293;SDS011;1155;42.644;23.264;2023-04-24T10:33:41;4.50;;;4.10;;
2293;SDS011;1155;42.644;23.264;2023-04-24T10:36:09;5.30;;;4.30;;
2293;SDS011;1155;42.644;23.264;2023-04-24T10:38:40;5.77;;;4.83;;
2293;SDS011;1155;42.644;23.264;2023-04-24T10:41:10;6.07;;;4.77;;
2293;SDS011;1155;42.644;23.264;2023-04-24T10:43:41;5.60;;;5.00;;
2293;SDS011;1155;42.644;23.264;2023-04-24T10:46:08;5.83;;;5.23;;
2293;SDS011;1155;42.644;23.264;2023-04-24T10:48:36;9.63;;;5.37;;
2293;SDS011;1155;42.644;23.264;2023-04-24T10:51:11;9.90;;;7.37;;
2293;SDS011;1155;42.644;23.264;2023-04-24T10:53:40;7.30;;;5.23;;
2293;SDS011;1155;42.644;23.264;2023-04-24T10:56:07;7.70;;;4.70;;
2293;SDS011;1155;42.644;23.264;2023-04-24T10:58:36;6.50;;;4.57;;
2293;SDS011;1155;42.644;23.264;2023-04-24T11:01:05;6.47;;;4.37;;
2293;SDS011;1155;42.644;23.264;2023-04-24T11:03:33;6.20;;;3.93;;
2293;SDS011;1155;42.644;23.264;2023-04-24T11:06:02;4.00;;;3.70;;
2293;SDS011;1155;42.644;23.264;2023-04-24T11:08:37;3.67;;;3.37;;
2293;SDS011;1155;42.644;23.264;2023-04-24T11:11:09;5.83;;;4.27;;
2293;SDS011;1155;42.644;23.264;2023-04-24T11:16:32;5.07;;;4.57;;
2293;SDS011;1155;42.644;23.264;2023-04-24T11:19:00;6.93;;;4.40;;
2293;SDS011;1155;42.644;23.264;2023-04-24T11:21:33;4.70;;;4.20;;
2293;SDS011;1155;42.644;23.264;2023-04-24T11:24:21;3.30;;;3.10;;
2293;SDS011;1155;42.644;23.264;2023-04-24T11:26:52;5.13;;;2.53;;
2293;SDS011;1155;42.644;23.264;2023-04-24T11:29:20;4.80;;;3.20;;
2293;SDS011;1155;42.644;23.264;2023-04-24T11:31:47;5.33;;;4.33;;
2293;SDS011;1155;42.644;23.264;2023-04-24T11:34:16;18.60;;;11.90;;
2293;SDS011;1155;42.644;23.264;2023-04-24T11:36:44;4.60;;;3.57;;
2293;SDS011;1155;42.644;23.264;2023-04-24T11:39:13;6.27;;;5.17;;
2293;SDS011;1155;42.644;23.264;2023-04-24T11:41:40;13.57;;;5.43;;
2293;SDS011;1155;42.644;23.264;2023-04-24T11:44:09;5.50;;;5.00;;
2293;SDS011;1155;42.644;23.264;2023-04-24T11:46:36;7.60;;;5.80;;
2293;SDS011;1155;42.644;23.264;2023-04-24T11:49:05;6.27;;;5.63;;
2293;SDS011;1155;42.644;23.264;2023-04-24T11:51:32;6.27;;;5.67;;
2293;SDS011;1155;42.644;23.264;2023-04-24T11:53:59;4.90;;;4.33;;
2293;SDS011;1155;42.644;23.264;2023-04-24T11:56:26;6.67;;;5.97;;
2293;SDS011;1155;42.644;23.264;2023-04-24T11:58:53;5.47;;;4.80;;
2293;SDS011;1155;42.644;23.264;2023-04-24T12:01:21;4.77;;;4.47;;
2293;SDS011;1155;42.644;23.264;2023-04-24T12:03:48;4.07;;;3.37;;
2293;SDS011;1155;42.644;23.264;2023-04-24T12:06:16;5.33;;;4.20;;
2293;SDS011;1155;42.644;23.264;2023-04-24T12:08:45;4.40;;;4.10;;
2293;SDS011;1155;42.644;23.264;2023-04-24T12:11:14;5.40;;;4.93;;
2293;SDS011;1155;42.644;23.264;2023-04-24T12:13:43;3.90;;;3.60;;
2293;SDS011;1155;42.644;23.264;2023-04-24T12:16:10;5.43;;;4.20;;
2293;SDS011;1155;42.644;23.264;2023-04-24T12:18:42;3.57;;;3.27;;
2293;SDS011;1155;42.644;23.264;2023-04-24T12:21:19;3.63;;;2.77;;
2293;SDS011;1155;42.644;23.264;2023-04-24T12:23:47;4.40;;;4.03;;
2293;SDS011;1155;42.644;23.264;2023-04-24T12:26:17;4.97;;;3.40;;
2293;SDS011;1155;42.644;23.264;2023-04-24T12:28:46;5.00;;;4.50;;
2293;SDS011;1155;42.644;23.264;2023-04-24T12:31:15;4.23;;;3.83;;
2293;SDS011;1155;42.644;23.264;2023-04-24T12:33:44;4.00;;;3.13;;
2293;SDS011;1155;42.644;23.264;2023-04-24T12:36:11;4.90;;;4.50;;
2293;SDS011;1155;42.644;23.264;2023-04-24T12:38:39;6.43;;;4.00;;
2293;SDS011;1155;42.644;23.264;2023-04-24T12:41:13;6.93;;;3.83;;
2293;SDS011;1155;42.644;23.264;2023-04-24T12:43:50;3.80;;;3.40;;
2293;SDS011;1155;42.644;23.264;2023-04-24T12:46:18;4.47;;;3.87;;
2293;SDS011;1155;42.644;23.264;2023-04-24T12:48:47;4.70;;;4.30;;
2293;SDS011;1155;42.644;23.264;2023-04-24T12:51:13;6.77;;;4.10;;
2293;SDS011;1155;42.644;23.264;2023-04-24T12:53:40;4.97;;;4.57;;
2293;SDS011;1155;42.644;23.264;2023-04-24T12:56:07;5.00;;;4.50;;
2293;SDS011;1155;42.644;23.264;2023-04-24T12:58:34;4.33;;;4.03;;
2293;SDS011;1155;42.644;23.264;2023-04-24T13:01:01;5.30;;;3.70;;
2293;SDS011;1155;42.644;23.264;2023-04-24T13:03:28;4.23;;;3.93;;
2293;SDS011;1155;42.644;23.264;2023-04-24T13:05:56;4.77;;;3.80;;
2293;SDS011;1155;42.644;23.264;2023-04-24T13:08:22;4.37;;;3.93;;
2293;SDS011;1155;42.644;23.264;2023-04-24T13:10:49;7.40;;;4.30;;
2293;SDS011;1155;42.644;23.264;2023-04-24T13:13:17;4.40;;;3.57;;
2293;SDS011;1155;42.644;23.264;2023-04-24T13:15:43;3.93;;;3.43;;
2293;SDS011;1155;42.644;23.264;2023-04-24T13:18:10;4.60;;;3.33;;
2293;SDS011;1155;42.644;23.264;2023-04-24T13:20:37;3.90;;;3.60;;
2293;SDS011;1155;42.644;23.264;2023-04-24T13:23:07;3.40;;;3.20;;
2293;SDS011;1155;42.644;23.264;2023-04-24T13:25:35;4.20;;;3.73;;
2293;SDS011;1155;42.644;23.264;2023-04-24T13:28:04;4.07;;;3.77;;
2293;SDS011;1155;42.644;23.264;2023-04-24T13:30:31;4.10;;;3.80;;
2293;SDS011;1155;42.644;23.264;2023-04-24T13:32:58;4.57;;;3.83;;
2293;SDS011;1155;42.644;23.264;2023-04-24T13:35:25;4.03;;;3.60;;
2293;SDS011;1155;42.644;23.264;2023-04-24T13:37:51;4.40;;;4.00;;
2293;SDS011;1155;42.644;23.264;2023-04-24T13:40:20;5.00;;;4.00;;
2293;SDS011;1155;42.644;23.264;2023-04-24T13:42:46;6.43;;;4.23;;
2293;SDS011;1155;42.644;23.264;2023-04-24T13:45:13;4.90;;;4.03;;
2293;SDS011;1155;42.644;23.264;2023-04-24T13:47:40;5.30;;;3.33;;
2293;SDS011;1155;42.644;23.264;2023-04-24T13:50:07;4.17;;;3.70;;
2293;SDS011;1155;42.644;23.264;2023-04-24T13:52:35;3.77;;;3.47;;
2293;SDS011;1155;42.644;23.264;2023-04-24T13:55:02;4.83;;;3.20;;
2293;SDS011;1155;42.644;23.264;2023-04-24T13:57:30;5.50;;;4.60;;
2293;SDS011;1155;42.644;23.264;2023-04-24T13:59:57;5.50;;;4.10;;
2293;SDS011;1155;42.644;23.264;2023-04-24T14:02:26;4.73;;;3.70;;
2293;SDS011;1155;42.644;23.264;2023-04-24T14:04:53;4.37;;;3.30;;
2293;SDS011;1155;42.644;23.264;2023-04-24T14:07:20;4.23;;;3.77;;
2293;SDS011;1155;42.644;23.264;2023-04-24T14:09:47;4.10;;;3.70;;
2293;SDS011;1155;42.644;23.264;2023-04-24T14:12:13;3.70;;;3.40;;
2293;SDS011;1155;42.644;23.264;2023-04-24T14:14:43;3.50;;;3.20;;
2293;SDS011;1155;42.644;23.264;2023-04-24T14:17:10;5.00;;;3.30;;
2293;SDS011;1155;42.644;23.264;2023-04-24T14:19:37;4.97;;;3.93;;
2293;SDS011;1155;42.644;23.264;2023-04-24T14:22:04;4.77;;;3.90;;
2293;SDS011;1155;42.644;23.264;2023-04-24T14:24:30;4.30;;;4.00;;
2293;SDS011;1155;42.644;23.264;2023-04-24T14:26:57;4.47;;;3.93;;
2293;SDS011;1155;42.644;23.264;2023-04-24T14:29:25;4.13;;;3.60;;
2293;SDS011;1155;42.644;23.264;2023-04-24T14:31:53;5.50;;;3.97;;
2293;SDS011;1155;42.644;23.264;2023-04-24T14:34:20;5.00;;;3.90;;
2293;SDS011;1155;42.644;23.264;2023-04-24T14:36:47;4.30;;;3.90;;
2293;SDS011;1155;42.644;23.264;2023-04-24T14:39:13;4.97;;;3.93;;
2293;SDS011;1155;42.644;23.264;2023-04-24T14:41:40;5.53;;;3.60;;
2293;SDS011;1155;42.644;23.264;2023-04-24T14:44:07;6.67;;;4.20;;
2293;SDS011;1155;42.644;23.264;2023-04-24T14:46:34;5.90;;;5.03;;
2293;SDS011;1155;42.644;23.264;2023-04-24T14:49:02;9.03;;;4.30;;
2293;SDS011;1155;42.644;23.264;2023-04-24T14:51:30;4.77;;;4.13;;
2293;SDS011;1155;42.644;23.264;2023-04-24T14:53:57;6.07;;;3.93;;
2293;SDS011;1155;42.644;23.264;2023-04-24T14:56:25;4.03;;;3.73;;
2293;SDS011;1155;42.644;23.264;2023-04-24T14:58:51;3.30;;;3.10;;
2293;SDS011;1155;42.644;23.264;2023-04-24T15:01:18;7.10;;;3.63;;
2293;SDS011;1155;42.644;23.264;2023-04-24T15:03:45;4.30;;;3.80;;
2293;SDS011;1155;42.644;23.264;2023-04-24T15:06:13;4.40;;;3.97;;
2293;SDS011;1155;42.644;23.264;2023-04-24T15:08:40;5.93;;;4.30;;
2293;SDS011;1155;42.644;23.264;2023-04-24T15:11:07;9.97;;;4.50;;
2293;SDS011;1155;42.644;23.264;2023-04-24T15:13:35;6.80;;;4.57;;
2293;SDS011;1155;42.644;23.264;2023-04-24T15:16:02;5.60;;;3.93;;
2293;SDS011;1155;42.644;23.264;2023-04-24T15:18:28;7.70;;;4.10;;
2293;SDS011;1155;42.644;23.264;2023-04-24T15:20:55;4.40;;;4.00;;
2293;SDS011;1155;42.644;23.264;2023-04-24T15:23:24;8.13;;;4.80;;
2293;SDS011;1155;42.644;23.264;2023-04-24T15:25:51;3.97;;;3.43;;
2293;SDS011;1155;42.644;23.264;2023-04-24T15:28:18;7.37;;;4.00;;
2293;SDS011;1155;42.644;23.264;2023-04-24T15:30:46;5.20;;;3.73;;
2293;SDS011;1155;42.644;23.264;2023-04-24T15:33:13;4.63;;;4.23;;
2293;SDS011;1155;42.644;23.264;2023-04-24T15:35:42;5.43;;;4.90;;
2293;SDS011;1155;42.644;23.264;2023-04-24T15:38:08;6.50;;;4.50;;
2293;SDS011;1155;42.644;23.264;2023-04-24T15:40:37;14.73;;;4.70;;
2293;SDS011;1155;42.644;23.264;2023-04-24T15:43:04;6.30;;;5.70;;
2293;SDS011;1155;42.644;23.264;2023-04-24T15:45:33;5.87;;;5.20;;
2293;SDS011;1155;42.644;23.264;2023-04-24T15:48:00;7.00;;;6.40;;
2293;SDS011;1155;42.644;23.264;2023-04-24T15:50:27;8.87;;;5.07;;
2293;SDS011;1155;42.644;23.264;2023-04-24T15:52:54;6.90;;;5.03;;
2293;SDS011;1155;42.644;23.264;2023-04-24T15:55:22;6.77;;;5.40;;
2293;SDS011;1155;42.644;23.264;2023-04-24T15:57:50;6.57;;;5.50;;
2293;SDS011;1155;42.644;23.264;2023-04-24T16:00:17;6.30;;;5.70;;
2293;SDS011;1155;42.644;23.264;2023-04-24T16:02:45;6.70;;;5.57;;
2293;SDS011;1155;42.644;23.264;2023-04-24T16:05:13;5.13;;;4.70;;
2293;SDS011;1155;42.644;23.264;2023-04-24T16:07:40;8.60;;;5.43;;
2293;SDS011;1155;42.644;23.264;2023-04-24T16:10:07;7.73;;;6.23;;
2293;SDS011;1155;42.644;23.264;2023-04-24T16:12:34;8.13;;;5.93;;
2293;SDS011;1155;42.644;23.264;2023-04-24T16:15:03;9.00;;;7.30;;
2293;SDS011;1155;42.644;23.264;2023-04-24T16:17:31;7.20;;;6.00;;
2293;SDS011;1155;42.644;23.264;2023-04-24T16:19:58;8.13;;;6.37;;
2293;SDS011;1155;42.644;23.264;2023-04-24T16:22:26;17.07;;;9.80;;
2293;SDS011;1155;42.644;23.264;2023-04-24T16:24:55;15.23;;;7.33;;
2293;SDS011;1155;42.644;23.264;2023-04-24T16:27:22;12.30;;;8.70;;
2293;SDS011;1155;42.644;23.264;2023-04-24T16:43:50;10.60;;;8.10;;
2293;SDS011;1155;42.644;23.264;2023-04-24T16:46:19;12.23;;;8.37;;
2293;SDS011;1155;42.644;23.264;2023-04-24T16:48:48;10.37;;;9.30;;
2293;SDS011;1155;42.644;23.264;2023-04-24T16:51:16;11.10;;;8.80;;
2293;SDS011;1155;42.644;23.264;2023-04-24T16:53:46;13.40;;;9.57;;
2293;SDS011;1155;42.644;23.264;2023-04-24T16:56:17;18.40;;;12.23;;
2293;SDS011;1155;42.644;23.264;2023-04-24T17:05:10;12.50;;;10.10;;
2293;SDS011;1155;42.644;23.264;2023-04-24T17:08:21;14.23;;;11.07;;
2293;SDS011;1155;42.644;23.264;2023-04-24T17:11:04;16.23;;;10.80;;
2293;SDS011;1155;42.644;23.264;2023-04-24T17:13:52;16.50;;;10.83;;
2293;SDS011;1155;42.644;23.264;2023-04-24T17:16:30;11.40;;;10.30;;